Time;durP1;ratioP1;P1;durP2;ratioP2;P2;SDS_P1;SDS_P2;PMS_P1;PMS_P2;Temp;Humidity;BMP_temperature;BMP_pressure;BME280_temperature;BME280_humidity;BME280_pressure;Samples;Min_cycle;Max_cycle;Signal;HPM_P1;HPM_P2
2022/01/18 00:02:39;;;;;;;33.25;19.30;;;;;;;;;;6257996;28;20045;-63
2022/01/18 00:05:42;;;;;;;37.63;21.00;;;;;;;;;;6257868;28;20069;-64
2022/01/18 00:08:44;;;;;;;37.50;21.35;;;;;;;;;;6264050;28;20048;-63
2022/01/18 00:11:55;;;;;;;36.65;21.40;;;;;;;;;;6255342;28;20550;-65
2022/01/18 00:15:29;;;;;;;313.23;141.55;;;;;;;;;;6256676;28;20598;-64
2022/01/18 00:18:21;;;;;;;58.28;30.67;;;;;;;;;;6255663;28;20057;-65
2022/01/18 00:21:34;;;;;;;51.70;29.00;;;;;;;;;;6254692;28;20367;-64
2022/01/18 00:24:35;;;;;;;47.33;23.60;;;;;;;;;;6258440;28;20413;-64
2022/01/18 00:27:37;;;;;;;37.25;22.60;;;;;;;;;;6265000;28;20096;-64
2022/01/18 00:31:04;;;;;;;39.13;22.20;;;;;;;;;;6260383;28;20508;-64
2022/01/18 00:34:12;;;;;;;38.65;21.73;;;;;;;;;;6259554;28;20048;-64
2022/01/18 00:37:26;;;;;;;36.03;21.73;;;;;;;;;;6257550;28;20076;-63
2022/01/18 00:40:28;;;;;;;39.72;21.42;;;;;;;;;;6259303;28;20064;-63
2022/01/18 00:43:30;;;;;;;39.20;21.42;;;;;;;;;;6258105;28;20064;-63
2022/01/18 00:46:32;;;;;;;37.85;22.15;;;;;;;;;;6255722;28;20126;-64
2022/01/18 00:49:40;;;;;;;36.47;21.48;;;;;;;;;;6258358;28;20180;-64
2022/01/18 00:52:49;;;;;;;38.20;22.20;;;;;;;;;;6255847;28;20124;-64
2022/01/18 00:56:03;;;;;;;38.58;20.70;;;;;;;;;;6256710;28;20407;-64
2022/01/18 00:59:04;;;;;;;37.70;20.15;;;;;;;;;;6256142;28;20501;-65
2022/01/18 01:02:06;;;;;;;37.28;21.67;;;;;;;;;;6258900;28;20141;-64
2022/01/18 01:05:10;;;;;;;35.90;21.50;;;;;;;;;;6258308;28;20056;-64
2022/01/18 01:08:11;;;;;;;24.25;15.23;;;;;;;;;;6252573;28;20123;-64
2022/01/18 01:11:13;;;;;;;35.13;20.17;;;;;;;;;;6253033;28;20057;-64
2022/01/18 01:14:19;;;;;;;38.67;20.95;;;;;;;;;;6255555;28;20139;-64
2022/01/18 01:17:37;;;;;;;33.80;21.25;;;;;;;;;;6254520;28;20049;-64
2022/01/18 01:44:04;;;;;;;38.13;21.65;;;;;;;;;;6253816;28;20486;-64
2022/01/18 01:47:06;;;;;;;36.17;22.25;;;;;;;;;;6255639;28;20072;-63
2022/01/18 01:50:16;;;;;;;35.72;21.83;;;;;;;;;;6255710;28;20090;-63
2022/01/18 01:53:21;;;;;;;35.42;21.60;;;;;;;;;;6248295;28;20454;-64
2022/01/18 01:56:23;;;;;;;38.08;22.42;;;;;;;;;;6252665;28;20147;-64
2022/01/18 01:59:24;;;;;;;37.85;21.55;;;;;;;;;;6258249;28;20130;-64
2022/01/18 02:02:30;;;;;;;40.20;22.85;;;;;;;;;;6263057;28;20083;-63
2022/01/18 02:05:31;;;;;;;34.80;21.10;;;;;;;;;;6257058;28;20143;-63
2022/01/18 02:08:34;;;;;;;39.22;22.10;;;;;;;;;;6259057;28;20053;-63
2022/01/18 02:11:36;;;;;;;36.97;22.77;;;;;;;;;;6253834;28;20616;-64
2022/01/18 02:14:40;;;;;;;40.67;22.23;;;;;;;;;;6251830;28;20531;-64
2022/01/18 02:24:24;;;;;;;36.78;22.67;;;;;;;;;;6248176;28;20056;-63
2022/01/18 02:27:26;;;;;;;40.30;22.83;;;;;;;;;;6250039;28;20049;-64
2022/01/18 02:30:27;;;;;;;34.55;20.80;;;;;;;;;;6250649;28;20125;-63
2022/01/18 02:33:29;;;;;;;39.70;22.70;;;;;;;;;;6258311;28;20512;-63
2022/01/18 02:36:33;;;;;;;37.85;21.90;;;;;;;;;;6249904;28;20528;-64
2022/01/18 02:39:35;;;;;;;34.78;19.98;;;;;;;;;;6251232;28;20127;-64
2022/01/18 02:42:44;;;;;;;34.60;20.42;;;;;;;;;;6252815;28;20087;-64
2022/01/18 02:45:45;;;;;;;29.05;18.90;;;;;;;;;;6255130;28;20045;-64
2022/01/18 02:48:47;;;;;;;32.67;19.58;;;;;;;;;;6252045;28;20052;-64
2022/01/18 02:51:50;;;;;;;33.28;18.75;;;;;;;;;;6251397;28;20052;-64
2022/01/18 02:54:53;;;;;;;31.65;19.80;;;;;;;;;;6255040;28;20052;-64
2022/01/18 02:58:02;;;;;;;34.90;19.52;;;;;;;;;;6255361;28;20041;-65
2022/01/18 03:04:23;;;;;;;34.17;20.38;;;;;;;;;;6254052;28;20076;-64
2022/01/18 03:07:26;;;;;;;33.65;19.73;;;;;;;;;;6254762;28;20162;-64
2022/01/18 03:10:27;;;;;;;35.60;19.75;;;;;;;;;;6264592;28;20295;-64
2022/01/18 03:13:29;;;;;;;35.92;21.42;;;;;;;;;;6265095;28;20045;-64
2022/01/18 03:16:30;;;;;;;35.08;20.45;;;;;;;;;;6257530;28;20132;-64
2022/01/18 03:19:32;;;;;;;35.63;20.65;;;;;;;;;;6255512;28;20139;-64
2022/01/18 03:22:35;;;;;;;42.30;20.88;;;;;;;;;;6254308;28;20183;-64
2022/01/18 03:25:51;;;;;;;36.00;20.25;;;;;;;;;;6249453;28;20045;-63
2022/01/18 03:28:53;;;;;;;35.85;21.00;;;;;;;;;;6252729;28;20041;-64
2022/01/18 03:31:54;;;;;;;38.15;21.38;;;;;;;;;;6252947;28;20107;-64
2022/01/18 03:34:56;;;;;;;40.03;23.02;;;;;;;;;;6250951;28;20073;-64
2022/01/18 03:37:59;;;;;;;41.72;23.38;;;;;;;;;;6259951;28;20057;-64
2022/01/18 03:41:02;;;;;;;36.85;21.70;;;;;;;;;;6250835;28;20133;-63
2022/01/18 03:44:04;;;;;;;41.80;23.85;;;;;;;;;;6253607;28;20052;-63
2022/01/18 03:47:05;;;;;;;46.75;25.88;;;;;;;;;;6252393;28;20099;-64
2022/01/18 03:50:09;;;;;;;43.85;25.30;;;;;;;;;;6253107;28;20628;-63
2022/01/18 03:53:12;;;;;;;43.30;25.83;;;;;;;;;;6251537;28;20467;-63
2022/01/18 03:56:14;;;;;;;49.75;27.33;;;;;;;;;;6251619;28;20470;-64
2022/01/18 03:59:15;;;;;;;47.28;27.42;;;;;;;;;;6253756;28;20073;-63
2022/01/18 04:02:17;;;;;;;49.15;27.20;;;;;;;;;;6253110;28;20476;-63
2022/01/18 04:05:19;;;;;;;51.03;29.40;;;;;;;;;;6252879;28;20592;-65
2022/01/18 04:08:22;;;;;;;52.60;29.88;;;;;;;;;;6259643;28;20135;-64
2022/01/18 04:11:24;;;;;;;60.70;32.17;;;;;;;;;;6258716;28;20156;-64
2022/01/18 04:14:25;;;;;;;57.55;32.42;;;;;;;;;;6255113;28;20053;-64
2022/01/18 04:17:49;;;;;;;56.75;33.42;;;;;;;;;;6255050;28;20050;-63
2022/01/18 04:27:31;;;;;;;54.88;31.20;;;;;;;;;;6257982;28;20054;-64
2022/01/18 04:30:33;;;;;;;52.42;30.00;;;;;;;;;;6255135;28;20516;-64
2022/01/18 04:33:35;;;;;;;59.00;30.90;;;;;;;;;;6255664;28;20095;-64
2022/01/18 04:36:37;;;;;;;54.90;30.88;;;;;;;;;;6255560;28;20080;-63
2022/01/18 04:39:42;;;;;;;53.20;30.83;;;;;;;;;;6255225;28;20453;-64
2022/01/18 04:49:19;;;;;;;54.58;30.98;;;;;;;;;;6246452;28;20057;-64
2022/01/18 04:52:21;;;;;;;55.33;30.35;;;;;;;;;;6254490;28;20053;-63
2022/01/18 04:55:30;;;;;;;52.38;30.10;;;;;;;;;;6256511;28;20175;-63
2022/01/18 04:58:32;;;;;;;52.90;31.23;;;;;;;;;;6256052;28;20485;-65
2022/01/18 05:01:34;;;;;;;54.85;30.45;;;;;;;;;;6257599;28;20171;-63
2022/01/18 05:04:36;;;;;;;54.55;30.00;;;;;;;;;;6257472;28;20091;-64
2022/01/18 05:07:38;;;;;;;60.22;31.33;;;;;;;;;;6256264;28;20073;-63
2022/01/18 05:10:42;;;;;;;53.10;29.38;;;;;;;;;;6255451;28;20472;-64
2022/01/18 05:17:09;;;;;;;51.50;28.88;;;;;;;;;;6252679;28;20053;-64
2022/01/18 05:23:29;;;;;;;51.10;28.27;;;;;;;;;;6238633;28;20083;-64
2022/01/18 05:26:32;;;;;;;55.72;28.77;;;;;;;;;;6252524;28;20530;-64
2022/01/18 05:29:34;;;;;;;55.25;30.65;;;;;;;;;;6255803;28;20507;-65
2022/01/18 05:32:35;;;;;;;51.28;28.42;;;;;;;;;;6251412;28;20044;-64
2022/01/18 05:35:37;;;;;;;49.45;27.27;;;;;;;;;;6253657;28;20045;-64
2022/01/18 05:38:39;;;;;;;51.40;28.52;;;;;;;;;;6251810;28;20176;-64
2022/01/18 05:41:43;;;;;;;52.25;30.02;;;;;;;;;;6257727;28;20139;-64
2022/01/18 05:44:47;;;;;;;56.53;30.17;;;;;;;;;;6257956;28;20438;-64
2022/01/18 05:47:48;;;;;;;54.03;29.53;;;;;;;;;;6257985;28;20562;-63
2022/01/18 05:50:50;;;;;;;57.15;31.95;;;;;;;;;;6254299;28;20106;-63
2022/01/18 05:53:52;;;;;;;58.00;32.80;;;;;;;;;;6253693;28;20061;-63
2022/01/18 05:56:55;;;;;;;58.60;32.67;;;;;;;;;;6254611;28;20194;-64
2022/01/18 06:00:02;;;;;;;60.40;32.35;;;;;;;;;;6259101;28;20087;-64
2022/01/18 06:03:12;;;;;;;58.08;33.75;;;;;;;;;;6253422;28;20425;-64
2022/01/18 06:09:33;;;;;;;60.05;33.53;;;;;;;;;;6257400;28;20489;-64
2022/01/18 06:12:36;;;;;;;60.05;32.55;;;;;;;;;;6249824;28;20129;-64
2022/01/18 06:15:38;;;;;;;62.38;33.10;;;;;;;;;;6251214;28;20511;-64
2022/01/18 06:18:40;;;;;;;63.50;34.22;;;;;;;;;;6254642;28;20144;-63
2022/01/18 06:21:41;;;;;;;63.45;33.47;;;;;;;;;;6249887;28;20140;-63
2022/01/18 06:24:43;;;;;;;61.75;35.05;;;;;;;;;;6258572;28;20416;-64
2022/01/18 06:27:46;;;;;;;66.97;34.38;;;;;;;;;;6251692;28;20073;-63
2022/01/18 06:30:48;;;;;;;64.28;35.03;;;;;;;;;;6245687;28;20101;-63
2022/01/18 06:33:49;;;;;;;68.35;36.13;;;;;;;;;;6250171;28;20128;-64
2022/01/18 06:36:51;;;;;;;63.85;36.28;;;;;;;;;;6247565;28;20260;-62
2022/01/18 06:39:53;;;;;;;62.13;35.25;;;;;;;;;;6257476;28;20083;-63
2022/01/18 06:42:56;;;;;;;63.80;36.35;;;;;;;;;;6249552;28;20045;-63
2022/01/18 06:45:58;;;;;;;66.30;37.80;;;;;;;;;;6256125;28;20068;-63
2022/01/18 06:49:00;;;;;;;67.28;37.85;;;;;;;;;;6257477;28;20644;-63
2022/01/18 06:52:01;;;;;;;67.40;37.30;;;;;;;;;;6254959;28;20127;-63
2022/01/18 06:55:03;;;;;;;71.80;36.83;;;;;;;;;;6260756;28;20560;-63
2022/01/18 06:58:06;;;;;;;68.28;37.00;;;;;;;;;;6257485;28;20087;-63
2022/01/18 07:01:09;;;;;;;72.90;39.70;;;;;;;;;;6254451;28;20529;-63
2022/01/18 07:04:11;;;;;;;64.32;37.03;;;;;;;;;;6257515;28;20074;-63
2022/01/18 07:07:13;;;;;;;71.18;38.42;;;;;;;;;;6251272;28;20052;-63
2022/01/18 07:10:15;;;;;;;71.07;39.40;;;;;;;;;;6258645;28;20518;-62
2022/01/18 07:13:18;;;;;;;68.18;38.22;;;;;;;;;;6251449;28;20419;-62
2022/01/18 07:16:20;;;;;;;72.28;39.70;;;;;;;;;;6250962;28;20391;-62
2022/01/18 07:19:21;;;;;;;65.40;37.85;;;;;;;;;;6256927;28;20061;-63
2022/01/18 07:22:23;;;;;;;70.97;40.17;;;;;;;;;;6252648;28;20056;-63
2022/01/18 07:25:25;;;;;;;66.45;38.05;;;;;;;;;;6255292;28;20128;-63
2022/01/18 07:28:28;;;;;;;68.13;39.60;;;;;;;;;;6259539;28;20505;-62
2022/01/18 07:31:30;;;;;;;71.28;40.00;;;;;;;;;;6258055;28;20049;-64
2022/01/18 07:34:34;;;;;;;67.82;39.72;;;;;;;;;;6261252;28;20107;-63
2022/01/18 07:37:36;;;;;;;74.85;41.35;;;;;;;;;;6253376;28;20045;-63
2022/01/18 07:40:37;;;;;;;76.25;40.63;;;;;;;;;;6255796;28;20045;-62
2022/01/18 07:43:41;;;;;;;73.35;41.40;;;;;;;;;;6255708;28;20176;-62
2022/01/18 07:46:42;;;;;;;76.10;41.63;;;;;;;;;;6257397;28;20049;-63
2022/01/18 07:49:44;;;;;;;69.97;40.05;;;;;;;;;;6257628;28;20508;-62
2022/01/18 07:52:46;;;;;;;71.00;40.15;;;;;;;;;;6256929;28;20122;-63
2022/01/18 07:55:47;;;;;;;74.15;41.05;;;;;;;;;;6260180;28;20515;-62
2022/01/18 07:58:50;;;;;;;73.30;41.42;;;;;;;;;;6257210;28;20052;-62
2022/01/18 08:01:52;;;;;;;70.53;41.80;;;;;;;;;;6253305;28;20486;-63
2022/01/18 08:04:53;;;;;;;68.40;41.30;;;;;;;;;;6257317;28;20555;-63
2022/01/18 08:07:55;;;;;;;69.25;40.97;;;;;;;;;;6254955;28;20144;-62
2022/01/18 08:10:57;;;;;;;73.22;41.17;;;;;;;;;;6257485;28;20127;-62
2022/01/18 08:14:01;;;;;;;67.97;41.00;;;;;;;;;;6261864;28;20105;-62
2022/01/18 08:17:04;;;;;;;67.43;39.45;;;;;;;;;;6255892;28;20049;-63
2022/01/18 08:20:07;;;;;;;66.33;40.30;;;;;;;;;;6254026;28;20045;-63
2022/01/18 08:23:09;;;;;;;69.43;41.05;;;;;;;;;;6264654;28;20118;-63
2022/01/18 08:26:11;;;;;;;68.15;40.78;;;;;;;;;;6255532;28;20085;-62
2022/01/18 08:29:14;;;;;;;68.75;38.72;;;;;;;;;;6254899;28;20146;-63
2022/01/18 08:32:16;;;;;;;64.97;39.55;;;;;;;;;;6254071;28;20041;-63
2022/01/18 08:35:18;;;;;;;61.92;37.33;;;;;;;;;;6256273;28;20183;-63
2022/01/18 08:38:22;;;;;;;70.93;40.38;;;;;;;;;;6258186;28;20049;-63
2022/01/18 08:41:24;;;;;;;69.28;39.45;;;;;;;;;;6259032;28;20045;-63
2022/01/18 08:44:27;;;;;;;61.75;38.20;;;;;;;;;;6257649;28;20044;-63
2022/01/18 08:47:28;;;;;;;66.60;40.00;;;;;;;;;;6256813;28;20049;-63
2022/01/18 08:50:31;;;;;;;62.05;38.53;;;;;;;;;;6256924;28;20111;-63
2022/01/18 08:53:32;;;;;;;66.32;40.80;;;;;;;;;;6256720;28;20053;-64
2022/01/18 08:56:34;;;;;;;68.55;40.17;;;;;;;;;;6255490;28;20049;-63
2022/01/18 08:59:37;;;;;;;67.63;41.78;;;;;;;;;;6258275;28;20083;-63
2022/01/18 09:02:38;;;;;;;64.72;39.63;;;;;;;;;;6256123;28;20124;-63
2022/01/18 09:05:43;;;;;;;69.65;41.22;;;;;;;;;;6258472;28;20087;-62
2022/01/18 09:08:45;;;;;;;;;;;;;;;;;;6255027;28;20053;-62
2022/01/18 09:11:47;;;;;;;68.18;42.03;;;;;;;;;;6258264;28;19928;-63
2022/01/18 09:14:50;;;;;;;67.90;43.08;;;;;;;;;;6256902;28;20077;-62
2022/01/18 09:17:52;;;;;;;70.70;42.47;;;;;;;;;;6257209;28;20134;-63
2022/01/18 09:20:54;;;;;;;75.43;46.58;;;;;;;;;;6255994;28;20041;-63
2022/01/18 09:23:55;;;;;;;77.40;46.35;;;;;;;;;;6251564;28;20080;-63
2022/01/18 09:26:57;;;;;;;80.00;49.53;;;;;;;;;;6257105;28;20089;-63
2022/01/18 09:30:00;;;;;;;78.35;49.17;;;;;;;;;;6258023;28;20492;-63
2022/01/18 09:33:05;;;;;;;78.35;48.38;;;;;;;;;;6255970;28;20048;-63
2022/01/18 09:36:06;;;;;;;;;;;;;;;;;;6255855;28;20052;-63
2022/01/18 09:39:08;;;;;;;75.82;46.42;;;;;;;;;;6255957;28;20016;-63
2022/01/18 09:42:11;;;;;;;75.65;48.95;;;;;;;;;;6256425;28;20501;-63
2022/01/18 09:45:16;;;;;;;78.35;49.38;;;;;;;;;;6255011;28;20132;-63
2022/01/18 09:48:18;;;;;;;75.38;48.58;;;;;;;;;;6257498;28;20540;-63
2022/01/18 09:51:19;;;;;;;80.00;49.63;;;;;;;;;;6254238;28;20573;-63
2022/01/18 09:54:21;;;;;;;77.97;50.35;;;;;;;;;;6258395;28;20057;-62
2022/01/18 09:57:23;;;;;;;76.72;48.70;;;;;;;;;;6253396;28;20091;-63
2022/01/18 10:00:29;;;;;;;76.57;49.15;;;;;;;;;;6267520;28;20136;-63
2022/01/18 10:03:33;;;;;;;76.45;49.97;;;;;;;;;;6269326;28;20082;-63
2022/01/18 10:06:35;;;;;;;73.65;49.15;;;;;;;;;;6256300;28;20124;-63
2022/01/18 10:09:36;;;;;;;75.97;50.30;;;;;;;;;;6256116;28;20042;-63
2022/01/18 10:12:38;;;;;;;76.63;50.05;;;;;;;;;;6254370;28;20060;-63
2022/01/18 10:15:58;;;;;;;77.63;52.28;;;;;;;;;;6256330;28;20071;-63
2022/01/18 10:19:03;;;;;;;75.78;51.50;;;;;;;;;;6248757;28;20136;-63
2022/01/18 10:22:12;;;;;;;73.00;50.67;;;;;;;;;;6262104;28;20606;-63
2022/01/18 10:25:16;;;;;;;74.88;51.97;;;;;;;;;;6260582;28;20041;-64
2022/01/18 10:28:31;;;;;;;79.47;52.67;;;;;;;;;;6261628;28;20564;-63
2022/01/18 10:31:40;;;;;;;70.63;50.30;;;;;;;;;;6254779;28;20065;-64
2022/01/18 10:35:04;;;;;;;77.28;53.13;;;;;;;;;;6256677;28;20064;-63
2022/01/18 10:38:17;;;;;;;73.75;51.15;;;;;;;;;;6259230;28;20057;-63
2022/01/18 10:41:24;;;;;;;74.13;50.87;;;;;;;;;;6256396;28;20045;-63
2022/01/18 10:44:25;;;;;;;74.82;53.03;;;;;;;;;;6257179;28;20053;-63
2022/01/18 10:47:28;;;;;;;67.88;51.20;;;;;;;;;;6256754;28;20053;-64
2022/01/18 10:50:32;;;;;;;74.30;51.63;;;;;;;;;;6258147;28;20045;-65
2022/01/18 10:53:34;;;;;;;71.55;52.15;;;;;;;;;;6254983;28;20096;-65
2022/01/18 10:56:43;;;;;;;75.53;53.15;;;;;;;;;;6261568;28;20148;-63
2022/01/18 10:59:45;;;;;;;69.13;52.38;;;;;;;;;;6254730;28;20179;-63
2022/01/18 11:02:50;;;;;;;72.93;53.05;;;;;;;;;;6256265;28;20125;-64
2022/01/18 11:05:52;;;;;;;72.88;53.17;;;;;;;;;;6256856;28;20413;-64
2022/01/18 11:08:53;;;;;;;71.15;52.15;;;;;;;;;;6256923;28;20532;-64
2022/01/18 11:11:55;;;;;;;70.55;52.50;;;;;;;;;;6259450;28;20061;-64
2022/01/18 11:15:07;;;;;;;69.82;51.83;;;;;;;;;;6253617;28;20118;-63
2022/01/18 11:18:17;;;;;;;71.57;52.47;;;;;;;;;;6252645;28;20107;-64
2022/01/18 11:21:22;;;;;;;72.45;54.85;;;;;;;;;;6250747;28;20049;-64
2022/01/18 11:24:23;;;;;;;73.18;53.90;;;;;;;;;;6253897;28;20064;-64
2022/01/18 11:27:27;;;;;;;71.28;53.47;;;;;;;;;;6251821;28;20146;-63
2022/01/18 11:30:32;;;;;;;71.82;53.60;;;;;;;;;;6247799;28;20053;-64
2022/01/18 11:33:36;;;;;;;69.40;52.30;;;;;;;;;;6250330;28;20072;-64
2022/01/18 11:36:42;;;;;;;68.32;51.95;;;;;;;;;;6251448;28;20088;-64
2022/01/18 11:39:44;;;;;;;67.75;51.65;;;;;;;;;;6249007;28;20053;-63
2022/01/18 11:42:51;;;;;;;66.80;50.92;;;;;;;;;;6248360;28;20202;-64
2022/01/18 11:45:52;;;;;;;70.10;51.72;;;;;;;;;;6249116;28;20049;-63
2022/01/18 11:49:02;;;;;;;74.72;52.55;;;;;;;;;;6251504;28;20053;-66
2022/01/18 11:52:06;;;;;;;66.43;49.75;;;;;;;;;;6248098;28;20541;-65
2022/01/18 11:55:07;;;;;;;68.15;49.42;;;;;;;;;;6253571;28;20611;-65
2022/01/18 11:58:11;;;;;;;65.47;48.28;;;;;;;;;;6258727;28;20050;-66
2022/01/18 12:01:13;;;;;;;66.68;49.85;;;;;;;;;;6255719;28;20049;-63
2022/01/18 12:04:57;;;;;;;62.80;46.45;;;;;;;;;;6254708;28;20065;-64
2022/01/18 12:08:03;;;;;;;56.40;43.53;;;;;;;;;;6252761;28;20056;-63
2022/01/18 12:11:06;;;;;;;56.78;43.70;;;;;;;;;;6255939;28;20073;-65
2022/01/18 12:14:07;;;;;;;;;;;;;;;;;;6254501;28;20460;-62
2022/01/18 12:17:17;;;;;;;59.30;44.88;;;;;;;;;;6255736;28;19984;-63
2022/01/18 12:20:44;;;;;;;57.65;43.60;;;;;;;;;;6260424;28;20142;-63
2022/01/18 12:23:46;;;;;;;55.90;40.50;;;;;;;;;;6256320;28;20489;-63
2022/01/18 12:26:58;;;;;;;50.95;36.45;;;;;;;;;;6249844;28;21051;-62
2022/01/18 12:30:37;;;;;;;50.28;35.22;;;;;;;;;;6249565;28;20168;-62
2022/01/18 12:33:44;;;;;;;52.42;37.85;;;;;;;;;;6256441;28;20099;-62
2022/01/18 12:36:47;;;;;;;53.75;39.60;;;;;;;;;;6254894;28;20106;-64
2022/01/18 12:40:05;;;;;;;52.25;38.53;;;;;;;;;;6254205;28;20508;-65
2022/01/18 12:46:27;;;;;;;91.30;57.95;;;;;;;;;;6258088;28;20732;-65
2022/01/18 12:49:29;;;;;;;74.40;50.00;;;;;;;;;;6252787;28;20124;-65
2022/01/18 12:52:48;;;;;;;63.08;44.05;;;;;;;;;;6257154;28;20520;-65
2022/01/18 12:55:54;;;;;;;91.00;60.25;;;;;;;;;;6255190;28;20527;-65
2022/01/18 12:58:56;;;;;;;60.40;41.72;;;;;;;;;;6255633;28;20041;-64
2022/01/18 13:01:57;;;;;;;53.88;38.33;;;;;;;;;;6258773;28;20481;-64
2022/01/18 13:05:00;;;;;;;50.78;38.33;;;;;;;;;;6257529;28;20072;-64
2022/01/18 13:08:04;;;;;;;51.90;34.90;;;;;;;;;;6264586;28;20052;-64
2022/01/18 13:11:06;;;;;;;44.40;30.48;;;;;;;;;;6260905;28;20081;-64
2022/01/18 13:14:11;;;;;;;42.63;31.33;;;;;;;;;;6254640;28;20136;-64
2022/01/18 13:23:58;;;;;;;43.10;29.95;;;;;;;;;;6257029;28;20041;-64
2022/01/18 13:27:04;;;;;;;41.30;28.95;;;;;;;;;;6261366;28;20064;-64
2022/01/18 13:30:15;;;;;;;46.17;29.30;;;;;;;;;;6256600;28;20045;-65
2022/01/18 13:33:16;;;;;;;44.40;30.70;;;;;;;;;;6257952;28;20563;-64
2022/01/18 13:36:19;;;;;;;43.85;29.45;;;;;;;;;;6264022;28;20120;-64
2022/01/18 13:39:25;;;;;;;38.28;25.33;;;;;;;;;;6257065;28;20059;-64
2022/01/18 13:42:31;;;;;;;36.25;22.67;;;;;;;;;;6256840;28;20049;-64
2022/01/18 13:45:34;;;;;;;32.55;21.40;;;;;;;;;;6260270;28;20053;-64
2022/01/18 13:48:37;;;;;;;32.92;21.60;;;;;;;;;;6263958;28;20052;-64
2022/01/18 13:51:39;;;;;;;31.35;23.10;;;;;;;;;;6257104;28;20045;-64
2022/01/18 13:54:50;;;;;;;36.13;24.10;;;;;;;;;;6258559;28;20372;-64
2022/01/18 13:57:55;;;;;;;43.33;30.70;;;;;;;;;;6260626;28;20044;-64
2022/01/18 14:01:08;;;;;;;41.45;29.77;;;;;;;;;;6260205;28;20140;-63
2022/01/18 14:04:18;;;;;;;35.90;25.60;;;;;;;;;;6256422;28;20052;-63
2022/01/18 14:07:19;;;;;;;38.03;25.73;;;;;;;;;;6264926;28;20134;-64
2022/01/18 14:10:23;;;;;;;37.65;25.92;;;;;;;;;;6259834;28;20173;-64
2022/01/18 14:13:29;;;;;;;41.03;26.38;;;;;;;;;;6256668;28;20056;-64
2022/01/18 14:16:32;;;;;;;38.17;26.77;;;;;;;;;;6255771;28;20519;-64
2022/01/18 14:19:35;;;;;;;38.23;26.57;;;;;;;;;;6261443;28;20052;-65
2022/01/18 14:22:38;;;;;;;38.45;27.08;;;;;;;;;;6253109;28;20459;-64
2022/01/18 14:25:41;;;;;;;40.53;28.05;;;;;;;;;;6255933;28;20126;-64
2022/01/18 14:28:43;;;;;;;40.42;27.80;;;;;;;;;;6263272;28;20165;-64
2022/01/18 14:31:56;;;;;;;41.58;28.67;;;;;;;;;;6266567;28;20069;-64
2022/01/18 14:34:59;;;;;;;45.92;29.70;;;;;;;;;;6262961;28;20510;-64
2022/01/18 14:38:03;;;;;;;47.10;31.23;;;;;;;;;;6263134;28;20124;-64
2022/01/18 14:41:18;;;;;;;46.67;30.15;;;;;;;;;;6264204;28;20179;-64
2022/01/18 14:44:35;;;;;;;47.28;31.88;;;;;;;;;;6265280;28;20037;-64
2022/01/18 14:47:36;;;;;;;44.28;28.45;;;;;;;;;;6263953;28;20044;-64
2022/01/18 14:50:40;;;;;;;48.20;32.03;;;;;;;;;;6261761;28;20164;-64
2022/01/18 14:53:41;;;;;;;48.10;31.30;;;;;;;;;;6262637;28;20464;-64
2022/01/18 14:56:44;;;;;;;48.90;32.92;;;;;;;;;;6264266;28;20136;-64
2022/01/18 14:59:46;;;;;;;44.50;30.10;;;;;;;;;;6255750;28;20126;-64
2022/01/18 15:02:48;;;;;;;45.58;30.73;;;;;;;;;;6255202;28;20045;-65
2022/01/18 15:05:50;;;;;;;49.85;33.17;;;;;;;;;;6256951;28;20139;-64
2022/01/18 15:08:51;;;;;;;47.42;32.17;;;;;;;;;;6255225;28;21295;-64
2022/01/18 15:11:54;;;;;;;47.70;32.85;;;;;;;;;;6254770;28;20128;-64
2022/01/18 15:14:56;;;;;;;49.73;33.43;;;;;;;;;;6256485;28;20383;-64
2022/01/18 15:17:58;;;;;;;50.58;34.45;;;;;;;;;;6267179;28;20459;-64
2022/01/18 15:20:59;;;;;;;54.45;35.80;;;;;;;;;;6257440;28;20441;-64
2022/01/18 15:24:01;;;;;;;48.53;34.33;;;;;;;;;;6260668;28;20139;-64
2022/01/18 15:27:05;;;;;;;48.78;34.58;;;;;;;;;;6257735;28;20041;-65
2022/01/18 15:30:10;;;;;;;53.00;34.70;;;;;;;;;;6251673;28;20106;-65
2022/01/18 15:33:12;;;;;;;50.25;35.33;;;;;;;;;;6254474;28;20065;-65
2022/01/18 15:36:14;;;;;;;53.13;34.72;;;;;;;;;;6254968;28;20505;-65
2022/01/18 15:39:15;;;;;;;52.30;34.83;;;;;;;;;;6263989;28;20405;-65
2022/01/18 15:42:19;;;;;;;55.30;34.47;;;;;;;;;;6255163;28;20481;-64
2022/01/18 15:45:21;;;;;;;52.55;35.88;;;;;;;;;;6259298;28;20143;-65
2022/01/18 15:48:22;;;;;;;53.95;36.17;;;;;;;;;;6263244;28;20385;-64
2022/01/18 15:51:24;;;;;;;51.45;34.70;;;;;;;;;;6265992;28;20049;-64
2022/01/18 15:54:26;;;;;;;52.45;34.72;;;;;;;;;;6250312;28;20088;-65
2022/01/18 15:57:29;;;;;;;57.53;35.90;;;;;;;;;;6260606;28;20448;-64
2022/01/18 16:00:32;;;;;;;59.30;35.33;;;;;;;;;;6252877;28;20061;-64
2022/01/18 16:03:34;;;;;;;61.50;39.10;;;;;;;;;;6253596;28;20484;-64
2022/01/18 16:06:36;;;;;;;61.28;40.22;;;;;;;;;;6259817;28;20486;-64
2022/01/18 16:09:38;;;;;;;62.58;40.30;;;;;;;;;;6260139;28;20477;-65
2022/01/18 16:12:41;;;;;;;70.65;41.70;;;;;;;;;;6256024;28;20053;-65
2022/01/18 16:15:42;;;;;;;64.22;42.10;;;;;;;;;;6253378;28;20057;-64
2022/01/18 16:18:44;;;;;;;64.60;42.15;;;;;;;;;;6247956;28;20545;-64
2022/01/18 16:21:47;;;;;;;69.55;45.10;;;;;;;;;;6251174;28;20520;-64
2022/01/18 16:24:48;;;;;;;212.85;119.22;;;;;;;;;;6252060;28;20513;-65
2022/01/18 16:27:52;;;;;;;213.20;112.20;;;;;;;;;;6253711;28;20481;-64
2022/01/18 16:30:54;;;;;;;176.20;102.05;;;;;;;;;;6248296;28;20414;-65
2022/01/18 16:33:56;;;;;;;225.55;123.10;;;;;;;;;;6251221;28;20247;-64
2022/01/18 16:36:57;;;;;;;160.63;87.57;;;;;;;;;;6254494;28;20054;-64
2022/01/18 16:39:59;;;;;;;91.95;56.90;;;;;;;;;;6256232;28;20140;-64
2022/01/18 16:43:02;;;;;;;73.20;46.75;;;;;;;;;;6247141;28;20471;-64
2022/01/18 16:46:04;;;;;;;73.80;45.70;;;;;;;;;;6252604;28;20064;-64
2022/01/18 16:49:06;;;;;;;74.38;45.20;;;;;;;;;;6250966;28;20049;-64
2022/01/18 16:52:09;;;;;;;70.15;44.72;;;;;;;;;;6250978;28;20064;-64
2022/01/18 16:55:11;;;;;;;74.47;46.83;;;;;;;;;;6252050;28;20053;-64
2022/01/18 16:58:14;;;;;;;69.90;44.00;;;;;;;;;;6253764;28;20116;-65
2022/01/18 17:01:16;;;;;;;76.00;44.65;;;;;;;;;;6253541;28;20073;-65
2022/01/18 17:04:17;;;;;;;76.15;45.30;;;;;;;;;;6259420;28;20207;-64
2022/01/18 17:07:19;;;;;;;73.90;45.05;;;;;;;;;;6253076;28;20049;-64
2022/01/18 17:10:21;;;;;;;73.93;46.75;;;;;;;;;;6257348;28;20274;-64
2022/01/18 17:13:23;;;;;;;73.55;46.30;;;;;;;;;;6257253;28;20080;-64
2022/01/18 17:16:25;;;;;;;76.63;48.22;;;;;;;;;;6257025;28;20056;-64
2022/01/18 17:19:27;;;;;;;76.72;47.63;;;;;;;;;;6252660;28;20076;-64
2022/01/18 17:22:29;;;;;;;72.10;46.67;;;;;;;;;;6257466;28;20085;-64
2022/01/18 17:25:30;;;;;;;73.13;46.28;;;;;;;;;;6253244;28;20135;-65
2022/01/18 17:28:33;;;;;;;74.00;46.33;;;;;;;;;;6250314;28;20052;-64
2022/01/18 17:31:35;;;;;;;74.80;47.38;;;;;;;;;;6253573;28;20053;-64
2022/01/18 17:34:37;;;;;;;72.95;46.03;;;;;;;;;;6255439;28;20095;-64
2022/01/18 17:37:38;;;;;;;73.50;46.28;;;;;;;;;;6256121;28;20126;-64
2022/01/18 17:40:43;;;;;;;74.90;46.17;;;;;;;;;;6252503;28;20100;-63
2022/01/18 17:43:46;;;;;;;78.60;47.17;;;;;;;;;;6258656;28;20049;-64
2022/01/18 17:46:47;;;;;;;74.15;44.92;;;;;;;;;;6257242;28;20090;-64
2022/01/18 17:49:49;;;;;;;79.80;46.80;;;;;;;;;;6256282;28;20144;-64
2022/01/18 17:52:50;;;;;;;75.88;46.55;;;;;;;;;;6254748;28;20080;-64
2022/01/18 17:55:53;;;;;;;77.25;46.25;;;;;;;;;;6255778;28;20274;-64
2022/01/18 17:58:56;;;;;;;71.85;42.88;;;;;;;;;;6255750;28;20068;-64
2022/01/18 18:01:57;;;;;;;69.53;43.58;;;;;;;;;;6251902;28;20088;-64
2022/01/18 18:04:59;;;;;;;77.28;44.22;;;;;;;;;;6263239;28;20427;-63
2022/01/18 18:08:01;;;;;;;72.85;45.03;;;;;;;;;;6254147;28;20095;-64
2022/01/18 18:11:02;;;;;;;78.78;44.95;;;;;;;;;;6253477;28;20175;-64
2022/01/18 18:14:05;;;;;;;74.47;45.22;;;;;;;;;;6254793;28;20140;-64
2022/01/18 18:17:07;;;;;;;71.03;46.47;;;;;;;;;;6255119;28;20095;-64
2022/01/18 18:20:09;;;;;;;73.32;45.78;;;;;;;;;;6257234;28;20513;-64
2022/01/18 18:23:11;;;;;;;76.07;46.83;;;;;;;;;;6254083;28;20231;-64
2022/01/18 18:26:13;;;;;;;77.90;47.05;;;;;;;;;;6251522;28;20124;-64
2022/01/18 18:29:16;;;;;;;73.85;46.25;;;;;;;;;;6251509;28;20183;-64
2022/01/18 18:32:19;;;;;;;72.38;45.33;;;;;;;;;;6254739;28;20049;-64
2022/01/18 18:35:21;;;;;;;77.67;47.07;;;;;;;;;;6252892;28;20064;-64
2022/01/18 18:38:30;;;;;;;77.20;45.20;;;;;;;;;;6254885;28;20128;-64
2022/01/18 18:41:43;;;;;;;73.35;44.17;;;;;;;;;;6258595;28;20095;-64
2022/01/18 18:44:46;;;;;;;77.53;45.10;;;;;;;;;;6260190;28;20335;-63
2022/01/18 18:47:48;;;;;;;78.57;48.17;;;;;;;;;;6259772;28;20064;-63
2022/01/18 18:50:51;;;;;;;77.70;47.25;;;;;;;;;;6261754;28;20621;-63
2022/01/18 18:53:53;;;;;;;80.00;47.97;;;;;;;;;;6256552;28;20056;-64
2022/01/18 18:56:55;;;;;;;74.20;46.45;;;;;;;;;;6259681;28;20511;-66
2022/01/18 19:00:18;;;;;;;78.07;46.78;;;;;;;;;;6256837;28;20056;-66